Time;durP1;ratioP1;P1;durP2;ratioP2;P2;SDS_P1;SDS_P2;PMS_P1;PMS_P2;Temp;Humidity;BMP_temperature;BMP_pressure;BME280_temperature;BME280_humidity;BME280_pressure;Samples;Min_cycle;Max_cycle;Signal;HPM_P1;HPM_P2
2023/06/23 00:01:00;;;;;;;13.30;8.75;;;;;;;;;;5052350;28;25097;-75
2023/06/23 00:03:26;;;;;;;13.95;8.38;;;;;;;;;;5059437;28;25079;-75
2023/06/23 00:05:52;;;;;;;16.15;8.35;;;;;;;;;;5049753;28;25053;-75
2023/06/23 00:08:18;;;;;;;14.23;9.18;;;;;;;;;;5052070;28;25077;-74
2023/06/23 00:10:44;;;;;;;14.73;8.85;;;;;;;;;;5051586;28;25146;-76
2023/06/23 00:13:10;;;;;;;12.90;7.95;;;;;;;;;;5054990;28;25064;-75
2023/06/23 00:15:36;;;;;;;16.52;8.48;;;;;;;;;;5054726;28;25077;-76
2023/06/23 00:18:02;;;;;;;14.55;9.50;;;;;;;;;;5050787;28;25105;-72
2023/06/23 00:20:29;;;;;;;13.55;8.77;;;;;;;;;;5043663;28;25070;-74
2023/06/23 00:22:55;;;;;;;12.75;9.32;;;;;;;;;;5039959;28;25069;-74
2023/06/23 00:25:22;;;;;;;15.52;8.75;;;;;;;;;;5044349;28;25078;-76
2023/06/23 00:27:48;;;;;;;15.60;9.35;;;;;;;;;;5050460;28;25094;-75
2023/06/23 00:30:14;;;;;;;12.23;8.38;;;;;;;;;;5051387;28;25148;-76
2023/06/23 00:32:41;;;;;;;15.82;9.00;;;;;;;;;;5048007;28;25072;-76
2023/06/23 00:35:08;;;;;;;15.77;9.75;;;;;;;;;;5057809;28;25084;-74
2023/06/23 00:37:37;;;;;;;19.75;9.48;;;;;;;;;;5042074;28;25075;-74
2023/06/23 00:40:04;;;;;;;17.67;10.48;;;;;;;;;;5043297;28;25058;-72
2023/06/23 00:42:31;;;;;;;16.50;9.98;;;;;;;;;;5047854;28;25104;-74
2023/06/23 00:44:57;;;;;;;16.13;10.80;;;;;;;;;;5038111;28;25084;-74
2023/06/23 00:47:24;;;;;;;15.02;10.15;;;;;;;;;;5022498;28;24908;-73
2023/06/23 00:49:50;;;;;;;19.65;11.10;;;;;;;;;;5037683;28;25064;-74
2023/06/23 00:52:16;;;;;;;14.95;10.85;;;;;;;;;;5040844;28;25139;-75
2023/06/23 00:54:43;;;;;;;13.77;9.93;;;;;;;;;;5054149;28;25054;-74
2023/06/23 00:57:10;;;;;;;16.90;10.63;;;;;;;;;;5049219;28;25077;-74
2023/06/23 00:59:36;;;;;;;18.65;10.68;;;;;;;;;;5030896;28;25068;-75
2023/06/23 01:02:03;;;;;;;15.82;10.73;;;;;;;;;;5049377;28;25083;-74
2023/06/23 01:04:33;;;;;;;23.02;12.32;;;;;;;;;;5030332;28;25133;-77
2023/06/23 01:07:11;;;;;;;18.92;11.20;;;;;;;;;;5036475;28;25066;-75
2023/06/23 01:09:42;;;;;;;20.65;11.20;;;;;;;;;;5053762;28;25147;-75
2023/06/23 01:12:12;;;;;;;18.92;12.32;;;;;;;;;;5049802;28;25163;-73
2023/06/23 01:14:46;;;;;;;18.85;12.55;;;;;;;;;;5022600;28;25059;-75
2023/06/23 01:17:16;;;;;;;22.30;13.13;;;;;;;;;;5046390;28;25104;-72
2023/06/23 01:19:53;;;;;;;18.95;13.23;;;;;;;;;;5034026;28;25049;-76
2023/06/23 01:22:43;;;;;;;21.48;14.05;;;;;;;;;;5044598;28;25057;-75
2023/06/23 01:25:09;;;;;;;18.20;12.60;;;;;;;;;;5028591;28;25058;-74
2023/06/23 01:27:35;;;;;;;29.25;16.40;;;;;;;;;;5040268;28;25131;-75
2023/06/23 01:30:04;;;;;;;24.75;15.52;;;;;;;;;;5024445;28;25105;-76
2023/06/23 01:32:34;;;;;;;24.65;16.52;;;;;;;;;;5037155;28;25070;-74
2023/06/23 01:35:04;;;;;;;26.60;17.00;;;;;;;;;;5041543;28;25069;-75
2023/06/23 01:37:35;;;;;;;25.33;16.77;;;;;;;;;;5040949;28;25074;-76
2023/06/23 01:40:09;;;;;;;24.10;16.65;;;;;;;;;;5037462;28;25226;-74
2023/06/23 01:42:37;;;;;;;23.48;17.20;;;;;;;;;;5041828;28;25065;-74
2023/06/23 01:45:04;;;;;;;34.83;18.83;;;;;;;;;;5033719;28;25066;-74
2023/06/23 01:47:34;;;;;;;29.35;18.35;;;;;;;;;;5031767;28;25073;-74
2023/06/23 01:50:02;;;;;;;28.85;18.25;;;;;;;;;;5044742;28;25062;-74
2023/06/23 01:52:29;;;;;;;30.75;18.73;;;;;;;;;;5042998;28;25098;-75
2023/06/23 01:54:56;;;;;;;31.27;20.48;;;;;;;;;;5047582;28;25066;-75
2023/06/23 01:57:23;;;;;;;36.58;20.75;;;;;;;;;;5042072;28;25103;-75
2023/06/23 01:59:50;;;;;;;35.92;21.35;;;;;;;;;;5052537;28;25161;-75
2023/06/23 02:02:16;;;;;;;31.90;20.65;;;;;;;;;;5044971;28;25168;-76
2023/06/23 02:04:44;;;;;;;35.10;21.58;;;;;;;;;;5052717;28;25108;-74
2023/06/23 02:07:12;;;;;;;33.65;21.63;;;;;;;;;;5027240;28;25071;-75
2023/06/23 02:09:38;;;;;;;36.78;23.02;;;;;;;;;;5035611;28;25167;-74
2023/06/23 02:12:06;;;;;;;38.65;23.88;;;;;;;;;;5042169;28;25063;-73
2023/06/23 02:14:32;;;;;;;39.95;24.00;;;;;;;;;;5047331;28;25063;-75
2023/06/23 02:16:58;;;;;;;37.75;23.63;;;;;;;;;;5045154;28;25059;-75
2023/06/23 02:19:25;;;;;;;41.92;24.77;;;;;;;;;;5035396;28;25048;-75
2023/06/23 02:21:51;;;;;;;44.80;25.13;;;;;;;;;;5038765;28;25069;-76
2023/06/23 02:24:18;;;;;;;43.78;24.85;;;;;;;;;;5038476;28;25085;-75
2023/06/23 02:26:47;;;;;;;40.67;25.45;;;;;;;;;;5047985;28;25149;-74
2023/06/23 02:29:14;;;;;;;38.78;24.40;;;;;;;;;;5051177;28;25151;-75
2023/06/23 02:31:40;;;;;;;38.75;23.77;;;;;;;;;;5030309;28;25076;-75
2023/06/23 02:34:06;;;;;;;34.72;24.10;;;;;;;;;;5047652;28;25087;-74
2023/06/23 02:36:38;;;;;;;38.05;24.35;;;;;;;;;;5046787;28;25138;-74
2023/06/23 02:39:06;;;;;;;36.80;24.10;;;;;;;;;;5045177;28;25064;-74
2023/06/23 02:41:35;;;;;;;38.47;23.83;;;;;;;;;;5044540;28;25070;-75
2023/06/23 02:44:03;;;;;;;37.40;23.77;;;;;;;;;;5056239;28;25085;-74
2023/06/23 02:46:33;;;;;;;40.17;23.05;;;;;;;;;;5062175;28;25096;-73
2023/06/23 02:49:02;;;;;;;34.03;20.83;;;;;;;;;;5053849;28;25094;-74
2023/06/23 02:51:28;;;;;;;37.67;22.33;;;;;;;;;;5060169;28;25068;-75
2023/06/23 02:54:04;;;;;;;40.83;23.67;;;;;;;;;;5058635;28;25102;-73
2023/06/23 02:56:30;;;;;;;38.25;23.80;;;;;;;;;;5078678;28;25068;-74
2023/06/23 02:59:07;;;;;;;39.15;24.17;;;;;;;;;;5069609;28;25087;-75
2023/06/23 03:01:36;;;;;;;39.35;24.25;;;;;;;;;;5077779;28;25074;-75
2023/06/23 03:04:02;;;;;;;40.85;24.75;;;;;;;;;;5073075;28;25062;-74
2023/06/23 03:06:28;;;;;;;39.17;24.58;;;;;;;;;;5056509;28;25074;-75
2023/06/23 03:08:54;;;;;;;40.58;24.77;;;;;;;;;;5032620;28;25102;-76
2023/06/23 03:11:20;;;;;;;48.17;28.13;;;;;;;;;;5050151;28;25066;-76
2023/06/23 03:13:47;;;;;;;50.08;28.17;;;;;;;;;;5050771;28;25063;-76
2023/06/23 03:16:15;;;;;;;48.38;28.25;;;;;;;;;;5047675;28;25133;-76
2023/06/23 03:18:43;;;;;;;46.53;28.83;;;;;;;;;;5038638;28;25101;-75
2023/06/23 03:21:09;;;;;;;54.05;28.38;;;;;;;;;;5043917;28;25103;-76
2023/06/23 03:23:37;;;;;;;52.45;28.45;;;;;;;;;;5048035;28;25068;-74
2023/06/23 03:26:03;;;;;;;54.90;28.92;;;;;;;;;;5044122;28;25100;-75
2023/06/23 03:28:31;;;;;;;47.05;29.00;;;;;;;;;;5045062;28;25050;-75
2023/06/23 03:31:01;;;;;;;50.83;30.75;;;;;;;;;;5040983;28;25086;-76
2023/06/23 03:33:32;;;;;;;55.95;30.65;;;;;;;;;;5039216;28;25071;-75
2023/06/23 03:36:02;;;;;;;58.08;33.60;;;;;;;;;;5045854;28;25132;-76
2023/06/23 03:38:29;;;;;;;65.07;34.42;;;;;;;;;;5045013;28;25178;-76
2023/06/23 03:40:58;;;;;;;70.18;36.83;;;;;;;;;;5050321;28;25113;-74
2023/06/23 03:43:36;;;;;;;63.28;36.03;;;;;;;;;;5049468;28;25058;-75
2023/06/23 03:46:05;;;;;;;62.85;35.28;;;;;;;;;;5051367;28;25085;-76
2023/06/23 03:48:33;;;;;;;63.33;34.70;;;;;;;;;;5045539;28;25093;-75
2023/06/23 03:51:00;;;;;;;58.42;34.72;;;;;;;;;;5022673;28;25071;-75
2023/06/23 03:53:27;;;;;;;69.22;36.80;;;;;;;;;;5024676;28;25140;-78
2023/06/23 03:55:54;;;;;;;60.15;35.45;;;;;;;;;;5041158;28;25143;-75
2023/06/23 03:58:21;;;;;;;61.58;33.80;;;;;;;;;;5060594;28;25100;-74
2023/06/23 04:00:48;;;;;;;62.70;33.60;;;;;;;;;;5059864;28;25130;-75
2023/06/23 04:03:16;;;;;;;63.88;36.28;;;;;;;;;;5050535;28;25161;-76
2023/06/23 04:05:43;;;;;;;64.38;36.00;;;;;;;;;;5040663;28;25062;-77
2023/06/23 04:08:09;;;;;;;65.18;36.42;;;;;;;;;;5045731;28;25139;-76
2023/06/23 04:10:35;;;;;;;66.72;36.33;;;;;;;;;;5038647;28;25080;-77
2023/06/23 04:13:02;;;;;;;73.13;37.05;;;;;;;;;;5046478;28;25061;-74
2023/06/23 04:15:29;;;;;;;76.55;38.88;;;;;;;;;;5045248;28;25055;-75
2023/06/23 04:17:55;;;;;;;71.72;38.28;;;;;;;;;;5042662;28;25071;-76
2023/06/23 04:20:22;;;;;;;69.72;36.67;;;;;;;;;;5050117;28;25080;-75
2023/06/23 04:22:49;;;;;;;69.68;37.83;;;;;;;;;;5049510;28;25081;-76
2023/06/23 04:25:16;;;;;;;77.30;38.58;;;;;;;;;;5036867;28;25063;-77
2023/06/23 04:27:43;;;;;;;73.07;37.17;;;;;;;;;;5047854;28;25057;-73
2023/06/23 04:30:09;;;;;;;69.65;38.30;;;;;;;;;;5049029;28;25066;-75
2023/06/23 04:32:37;;;;;;;86.55;40.03;;;;;;;;;;5042192;28;25089;-74
2023/06/23 04:35:03;;;;;;;76.00;40.05;;;;;;;;;;5049759;28;25079;-74
2023/06/23 04:37:44;;;;;;;73.72;40.67;;;;;;;;;;5054181;28;25369;-76
2023/06/23 04:40:29;;;;;;;67.50;38.53;;;;;;;;;;5053678;28;25066;-75
2023/06/23 04:43:15;;;;;;;68.90;37.72;;;;;;;;;;5046675;28;25075;-75
2023/06/23 04:45:42;;;;;;;79.32;38.60;;;;;;;;;;5055315;28;25063;-74
2023/06/23 04:48:10;;;;;;;68.07;36.35;;;;;;;;;;5048578;28;25107;-77
2023/06/23 04:50:36;;;;;;;67.22;38.63;;;;;;;;;;5033155;28;25086;-74
2023/06/23 04:53:05;;;;;;;63.90;36.13;;;;;;;;;;5054534;28;25077;-71
2023/06/23 04:55:34;;;;;;;67.55;35.25;;;;;;;;;;5054969;28;25075;-75
2023/06/23 04:58:03;;;;;;;62.78;36.40;;;;;;;;;;5054496;28;25079;-77
2023/06/23 05:00:29;;;;;;;67.07;35.90;;;;;;;;;;5048085;28;25147;-77
2023/06/23 05:02:57;;;;;;;69.70;37.25;;;;;;;;;;5043049;28;25096;-75
2023/06/23 05:05:24;;;;;;;58.95;34.47;;;;;;;;;;5044294;28;25047;-75
2023/06/23 05:07:51;;;;;;;60.25;33.97;;;;;;;;;;5053971;28;25098;-75
2023/06/23 05:10:19;;;;;;;59.22;32.20;;;;;;;;;;5057950;28;25207;-74
2023/06/23 05:12:48;;;;;;;54.75;30.77;;;;;;;;;;5046388;28;25100;-74
2023/06/23 05:15:16;;;;;;;58.00;32.20;;;;;;;;;;5047372;28;25069;-72
2023/06/23 05:17:43;;;;;;;63.20;32.40;;;;;;;;;;5050918;28;25093;-73
2023/06/23 05:20:10;;;;;;;65.47;33.42;;;;;;;;;;5033266;28;25072;-73
2023/06/23 05:22:38;;;;;;;58.25;31.50;;;;;;;;;;5046694;28;25068;-73
2023/06/23 05:25:05;;;;;;;66.35;33.60;;;;;;;;;;5036555;28;25080;-73
2023/06/23 05:27:33;;;;;;;62.17;31.27;;;;;;;;;;5047073;28;25066;-74
2023/06/23 05:29:59;;;;;;;59.60;31.50;;;;;;;;;;5041313;28;25161;-73
2023/06/23 05:32:28;;;;;;;57.90;30.70;;;;;;;;;;5050640;28;25084;-75
2023/06/23 05:34:56;;;;;;;59.38;30.17;;;;;;;;;;5045778;28;25091;-74
2023/06/23 05:37:23;;;;;;;60.35;31.25;;;;;;;;;;5037280;28;25138;-74
2023/06/23 05:39:50;;;;;;;61.75;30.38;;;;;;;;;;5047611;28;25066;-74
2023/06/23 05:42:16;;;;;;;56.22;31.55;;;;;;;;;;5042878;28;25048;-73
2023/06/23 05:44:42;;;;;;;57.00;29.45;;;;;;;;;;5046958;28;25175;-74
2023/06/23 05:47:10;;;;;;;55.88;30.20;;;;;;;;;;5034443;28;25090;-72
2023/06/23 05:49:40;;;;;;;51.67;28.17;;;;;;;;;;5047539;28;25051;-74
2023/06/23 05:52:08;;;;;;;46.20;27.77;;;;;;;;;;5034932;28;25081;-72
2023/06/23 05:54:38;;;;;;;46.55;27.02;;;;;;;;;;5046511;28;25180;-73
2023/06/23 05:57:04;;;;;;;42.13;26.08;;;;;;;;;;5049114;28;25136;-72
2023/06/23 06:00:00;;;;;;;50.53;26.52;;;;;;;;;;5045202;28;25054;-73
2023/06/23 06:02:29;;;;;;;39.30;24.35;;;;;;;;;;5031477;28;25057;-74
2023/06/23 06:04:57;;;;;;;47.33;26.95;;;;;;;;;;5047923;28;25058;-72
2023/06/23 06:07:23;;;;;;;42.85;25.67;;;;;;;;;;5067622;28;25100;-73
2023/06/23 06:09:50;;;;;;;41.45;23.95;;;;;;;;;;5058941;28;25068;-73
2023/06/23 06:12:16;;;;;;;37.50;23.38;;;;;;;;;;5046116;28;25100;-74
2023/06/23 06:14:43;;;;;;;38.67;22.65;;;;;;;;;;5062046;28;25159;-74
2023/06/23 06:17:10;;;;;;;43.08;22.95;;;;;;;;;;5063312;28;25069;-73
2023/06/23 06:19:38;;;;;;;34.25;21.75;;;;;;;;;;5071785;28;25065;-75
2023/06/23 06:22:07;;;;;;;34.72;20.92;;;;;;;;;;5065065;28;25108;-73
2023/06/23 06:24:34;;;;;;;31.75;19.73;;;;;;;;;;5057388;28;25076;-74
2023/06/23 06:27:01;;;;;;;35.97;21.65;;;;;;;;;;5063966;28;25051;-75
2023/06/23 06:29:28;;;;;;;33.78;20.50;;;;;;;;;;5062922;28;25065;-73
2023/06/23 06:31:54;;;;;;;29.27;18.52;;;;;;;;;;5065860;28;25086;-73
2023/06/23 06:34:23;;;;;;;34.65;20.20;;;;;;;;;;5055578;28;25067;-73
2023/06/23 06:36:50;;;;;;;34.83;19.92;;;;;;;;;;5064889;28;25066;-73
2023/06/23 06:39:16;;;;;;;38.25;20.23;;;;;;;;;;5051673;28;25089;-72
2023/06/23 06:41:42;;;;;;;36.30;20.80;;;;;;;;;;5050268;28;25073;-74
2023/06/23 06:44:08;;;;;;;39.55;20.60;;;;;;;;;;5051129;28;25057;-73
2023/06/23 06:46:36;;;;;;;31.52;19.50;;;;;;;;;;5044249;28;25094;-74
2023/06/23 06:49:02;;;;;;;32.65;18.83;;;;;;;;;;5045308;28;25065;-71
2023/06/23 06:51:28;;;;;;;30.55;18.25;;;;;;;;;;5053363;28;25065;-74
2023/06/23 06:53:54;;;;;;;31.30;17.42;;;;;;;;;;5057999;28;25151;-71
2023/06/23 06:56:21;;;;;;;26.02;17.55;;;;;;;;;;5063076;28;25059;-74
2023/06/23 06:58:47;;;;;;;27.48;17.40;;;;;;;;;;5065881;28;25065;-75
2023/06/23 07:01:13;;;;;;;29.58;16.90;;;;;;;;;;5070143;28;25086;-74
2023/06/23 07:03:42;;;;;;;23.92;15.02;;;;;;;;;;5065436;28;25064;-74
2023/06/23 07:06:08;;;;;;;21.67;15.15;;;;;;;;;;5055643;28;25101;-74
2023/06/23 07:08:34;;;;;;;23.25;13.60;;;;;;;;;;5047704;28;25088;-74
2023/06/23 07:11:00;;;;;;;21.73;13.60;;;;;;;;;;5035684;28;25059;-75
2023/06/23 07:13:27;;;;;;;19.73;12.05;;;;;;;;;;5039797;28;25066;-75
2023/06/23 07:15:53;;;;;;;17.77;11.88;;;;;;;;;;5027069;28;25065;-74
2023/06/23 07:18:19;;;;;;;17.83;11.02;;;;;;;;;;5041890;28;25073;-75
2023/06/23 07:20:45;;;;;;;22.27;10.68;;;;;;;;;;5051370;28;25172;-74
2023/06/23 07:23:11;;;;;;;13.88;9.13;;;;;;;;;;5043340;28;25048;-75
2023/06/23 07:25:37;;;;;;;13.50;8.60;;;;;;;;;;5057338;28;25287;-75
2023/06/23 07:28:02;;;;;;;16.10;10.02;;;;;;;;;;5043414;28;25111;-75
2023/06/23 07:30:28;;;;;;;13.32;9.85;;;;;;;;;;5038763;28;25045;-70
2023/06/23 07:32:54;;;;;;;13.98;10.02;;;;;;;;;;5038060;28;25067;-74
2023/06/23 07:35:20;;;;;;;14.40;9.50;;;;;;;;;;5034185;28;25068;-73
2023/06/23 07:37:46;;;;;;;15.02;9.63;;;;;;;;;;5033016;28;25094;-74
2023/06/23 07:40:12;;;;;;;16.10;9.07;;;;;;;;;;5047410;28;25062;-72
2023/06/23 07:42:38;;;;;;;13.35;8.70;;;;;;;;;;5032190;28;25059;-71
2023/06/23 07:45:04;;;;;;;11.23;7.68;;;;;;;;;;5013662;28;25072;-75
2023/06/23 07:47:30;;;;;;;12.45;7.82;;;;;;;;;;5030847;28;25099;-74
2023/06/23 07:49:56;;;;;;;10.88;7.95;;;;;;;;;;5040568;28;25107;-74
2023/06/23 07:52:22;;;;;;;13.18;8.00;;;;;;;;;;5030221;28;25067;-73
2023/06/23 07:54:48;;;;;;;12.57;7.10;;;;;;;;;;5040973;28;25142;-75
2023/06/23 07:57:14;;;;;;;13.25;7.20;;;;;;;;;;5029133;28;25060;-73
2023/06/23 07:59:40;;;;;;;15.63;8.18;;;;;;;;;;5039471;28;25041;-74
2023/06/23 08:02:06;;;;;;;11.25;7.05;;;;;;;;;;5044476;28;25119;-74
2023/06/23 08:04:32;;;;;;;13.93;7.45;;;;;;;;;;5048163;28;25068;-73
2023/06/23 08:06:58;;;;;;;12.13;7.75;;;;;;;;;;5045038;28;25074;-73
2023/06/23 08:09:24;;;;;;;9.00;6.43;;;;;;;;;;5031792;28;25138;-75
2023/06/23 08:11:50;;;;;;;7.68;6.03;;;;;;;;;;5025278;28;25081;-73
2023/06/23 08:14:16;;;;;;;8.18;5.70;;;;;;;;;;5039531;28;25076;-74
2023/06/23 08:16:42;;;;;;;8.45;6.07;;;;;;;;;;5041657;28;25117;-75
2023/06/23 08:19:08;;;;;;;12.65;8.45;;;;;;;;;;5033526;28;25057;-74
2023/06/23 08:21:35;;;;;;;10.40;6.65;;;;;;;;;;5039659;28;25160;-74
2023/06/23 08:24:01;;;;;;;9.30;5.80;;;;;;;;;;5045621;28;25063;-73
2023/06/23 08:26:27;;;;;;;8.98;5.82;;;;;;;;;;5045274;28;25075;-73
2023/06/23 08:28:53;;;;;;;9.73;5.07;;;;;;;;;;5042423;28;25121;-74
2023/06/23 08:31:19;;;;;;;6.30;4.60;;;;;;;;;;5040564;28;25157;-72
2023/06/23 08:33:45;;;;;;;12.38;4.50;;;;;;;;;;5034711;28;25138;-72
2023/06/23 08:36:11;;;;;;;7.28;4.20;;;;;;;;;;5033148;28;25050;-75
2023/06/23 08:38:37;;;;;;;6.07;4.20;;;;;;;;;;5042896;28;25085;-74
2023/06/23 08:41:04;;;;;;;7.38;4.70;;;;;;;;;;5032503;28;25119;-76
2023/06/23 08:43:31;;;;;;;12.02;6.80;;;;;;;;;;5038490;28;25189;-72
2023/06/23 08:45:58;;;;;;;12.85;6.93;;;;;;;;;;5041683;28;25054;-74
2023/06/23 08:48:26;;;;;;;12.05;7.00;;;;;;;;;;5033902;28;25074;-75
2023/06/23 08:50:56;;;;;;;13.30;8.65;;;;;;;;;;5044538;28;25052;-74
2023/06/23 08:53:23;;;;;;;14.30;8.38;;;;;;;;;;5044273;28;25082;-73
2023/06/23 08:55:50;;;;;;;9.45;6.85;;;;;;;;;;5056820;28;25058;-75
2023/06/23 08:58:17;;;;;;;10.88;6.25;;;;;;;;;;5027647;28;25091;-74
2023/06/23 09:00:43;;;;;;;10.77;6.38;;;;;;;;;;5032593;28;25072;-76
2023/06/23 09:03:09;;;;;;;8.50;5.97;;;;;;;;;;5034605;28;25108;-75
2023/06/23 09:05:36;;;;;;;6.35;4.15;;;;;;;;;;5038391;28;25068;-72
2023/06/23 09:08:02;;;;;;;8.30;4.45;;;;;;;;;;5042930;28;25162;-75
2023/06/23 09:10:28;;;;;;;6.95;3.60;;;;;;;;;;5027964;28;25068;-74
2023/06/23 09:13:12;;;;;;;4.45;3.50;;;;;;;;;;5043567;28;25141;-72
2023/06/23 09:15:38;;;;;;;4.78;3.70;;;;;;;;;;5038755;28;25094;-73
2023/06/23 09:18:05;;;;;;;5.47;3.83;;;;;;;;;;5036029;28;25165;-74
2023/06/23 09:20:31;;;;;;;7.38;3.75;;;;;;;;;;5038979;28;25064;-73
2023/06/23 09:22:58;;;;;;;5.32;4.00;;;;;;;;;;5032813;28;25068;-72
2023/06/23 09:25:44;;;;;;;7.72;5.15;;;;;;;;;;5035195;28;25061;-73
2023/06/23 09:28:25;;;;;;;9.82;6.38;;;;;;;;;;5024970;28;25069;-73
2023/06/23 09:30:52;;;;;;;9.10;6.00;;;;;;;;;;5034592;28;25049;-71
2023/06/23 09:33:19;;;;;;;7.32;5.40;;;;;;;;;;5031400;28;25141;-72
2023/06/23 09:35:45;;;;;;;6.45;5.13;;;;;;;;;;5051292;28;25088;-71
2023/06/23 09:38:11;;;;;;;8.60;6.20;;;;;;;;;;5029366;28;25109;-75
2023/06/23 09:40:38;;;;;;;7.93;6.07;;;;;;;;;;5040386;28;25106;-72
2023/06/23 09:43:04;;;;;;;10.77;5.93;;;;;;;;;;5039413;28;25067;-75
2023/06/23 09:45:33;;;;;;;6.65;5.05;;;;;;;;;;5044385;28;25069;-74
2023/06/23 09:47:59;;;;;;;8.48;5.07;;;;;;;;;;5035254;28;25096;-73
2023/06/23 09:50:27;;;;;;;5.50;4.68;;;;;;;;;;5037615;28;25085;-73
2023/06/23 09:53:12;;;;;;;6.68;4.50;;;;;;;;;;5029886;28;25061;-74
2023/06/23 09:55:38;;;;;;;7.10;4.57;;;;;;;;;;5029533;28;25056;-73
2023/06/23 09:58:08;;;;;;;7.05;3.78;;;;;;;;;;5037677;28;25127;-75
2023/06/23 10:00:34;;;;;;;8.25;4.07;;;;;;;;;;5038615;28;25059;-74
2023/06/23 10:03:00;;;;;;;4.95;3.95;;;;;;;;;;5039102;28;25055;-75
2023/06/23 10:05:26;;;;;;;5.80;3.88;;;;;;;;;;5040683;28;25067;-74
2023/06/23 10:08:10;;;;;;;6.28;4.10;;;;;;;;;;5029374;28;25045;-75
2023/06/23 10:10:43;;;;;;;4.35;3.15;;;;;;;;;;5039373;28;25079;-73
2023/06/23 10:13:09;;;;;;;5.97;3.53;;;;;;;;;;5052982;28;25052;-73
2023/06/23 10:15:36;;;;;;;4.95;3.05;;;;;;;;;;5049374;28;25123;-73
2023/06/23 10:18:02;;;;;;;6.47;4.10;;;;;;;;;;5037877;28;25052;-74
2023/06/23 10:20:28;;;;;;;3.97;3.50;;;;;;;;;;5046848;28;25068;-75
2023/06/23 10:22:56;;;;;;;5.07;2.95;;;;;;;;;;5037584;28;25071;-73
2023/06/23 10:25:23;;;;;;;4.00;2.75;;;;;;;;;;5043069;28;25188;-74
2023/06/23 10:27:51;;;;;;;2.70;2.50;;;;;;;;;;5043468;28;25140;-75
2023/06/23 10:30:18;;;;;;;7.00;2.97;;;;;;;;;;5040776;28;25058;-74
2023/06/23 10:32:46;;;;;;;4.68;3.05;;;;;;;;;;5044649;28;25079;-72
2023/06/23 10:35:13;;;;;;;5.57;3.33;;;;;;;;;;5034866;28;25133;-72
2023/06/23 10:37:40;;;;;;;6.10;3.10;;;;;;;;;;5050550;28;25055;-75
2023/06/23 10:40:08;;;;;;;4.70;3.00;;;;;;;;;;5026404;28;25063;-73
2023/06/23 10:42:35;;;;;;;3.10;2.50;;;;;;;;;;5048992;28;25067;-73
2023/06/23 10:45:01;;;;;;;2.70;2.50;;;;;;;;;;5048236;28;25110;-74
2023/06/23 10:47:28;;;;;;;2.63;2.33;;;;;;;;;;5042521;28;25052;-73
2023/06/23 10:49:54;;;;;;;9.80;2.50;;;;;;;;;;5048453;28;25066;-72
2023/06/23 10:52:21;;;;;;;2.47;2.22;;;;;;;;;;5045506;28;25055;-71
2023/06/23 10:54:47;;;;;;;3.03;2.30;;;;;;;;;;5044274;28;25080;-74
2023/06/23 10:57:14;;;;;;;6.03;3.30;;;;;;;;;;5036670;28;25064;-72
2023/06/23 10:59:43;;;;;;;5.60;3.15;;;;;;;;;;5040839;28;25071;-74
2023/06/23 11:02:12;;;;;;;4.03;2.80;;;;;;;;;;5048342;28;25061;-76
2023/06/23 11:04:41;;;;;;;3.80;2.80;;;;;;;;;;5043037;28;25073;-75
2023/06/23 11:07:12;;;;;;;3.30;2.47;;;;;;;;;;5041908;28;25060;-72
2023/06/23 11:10:02;;;;;;;2.63;2.42;;;;;;;;;;5037969;28;25159;-74
2023/06/23 11:12:31;;;;;;;4.95;2.58;;;;;;;;;;5040059;28;25070;-73
2023/06/23 11:15:06;;;;;;;6.05;2.80;;;;;;;;;;5032850;28;25065;-74
2023/06/23 11:17:41;;;;;;;5.40;3.75;;;;;;;;;;5034003;28;25147;-74
2023/06/23 11:20:27;;;;;;;4.78;2.85;;;;;;;;;;5042112;28;25051;-74
2023/06/23 11:22:59;;;;;;;4.05;3.10;;;;;;;;;;5046642;28;25065;-73
2023/06/23 11:25:29;;;;;;;4.68;3.67;;;;;;;;;;5035088;28;25069;-74
2023/06/23 11:28:14;;;;;;;6.88;3.35;;;;;;;;;;5046533;28;25038;-75
2023/06/23 11:30:59;;;;;;;3.92;3.05;;;;;;;;;;5052342;28;25065;-76
2023/06/23 11:33:29;;;;;;;3.78;2.50;;;;;;;;;;5045196;28;25070;-73
2023/06/23 11:35:55;;;;;;;3.40;2.72;;;;;;;;;;5073147;28;25074;-75
2023/06/23 11:38:21;;;;;;;4.70;3.42;;;;;;;;;;5058676;28;25077;-73
2023/06/23 11:40:51;;;;;;;5.72;3.60;;;;;;;;;;5059590;28;25088;-74
2023/06/23 11:43:18;;;;;;;5.80;3.47;;;;;;;;;;5055579;28;25055;-73
2023/06/23 11:45:51;;;;;;;3.70;2.90;;;;;;;;;;5048244;28;25062;-76
2023/06/23 11:48:17;;;;;;;10.52;3.53;;;;;;;;;;5041963;28;25085;-74
2023/06/23 11:50:43;;;;;;;4.28;3.35;;;;;;;;;;5045150;28;25079;-74
2023/06/23 11:53:10;;;;;;;3.22;2.58;;;;;;;;;;5051935;28;25145;-74
2023/06/23 11:55:36;;;;;;;4.00;2.92;;;;;;;;;;5064036;28;25072;-73
2023/06/23 11:58:03;;;;;;;4.03;3.42;;;;;;;;;;5029527;28;25061;-74
2023/06/23 12:00:30;;;;;;;4.20;2.65;;;;;;;;;;5027516;28;25087;-76
2023/06/23 12:02:58;;;;;;;6.40;3.22;;;;;;;;;;5041638;28;25066;-73
2023/06/23 12:05:24;;;;;;;7.10;3.28;;;;;;;;;;5042379;28;25157;-76
2023/06/23 12:07:50;;;;;;;5.90;2.97;;;;;;;;;;5021789;28;25076;-75
2023/06/23 12:10:16;;;;;;;6.35;2.70;;;;;;;;;;5028087;28;25153;-74
2023/06/23 12:12:43;;;;;;;7.53;3.55;;;;;;;;;;5031281;28;25113;-76
2023/06/23 12:15:10;;;;;;;6.80;2.58;;;;;;;;;;5022712;28;25167;-72
2023/06/23 12:17:43;;;;;;;7.40;3.13;;;;;;;;;;5027355;28;25051;-74
2023/06/23 12:20:10;;;;;;;3.08;2.78;;;;;;;;;;5018403;28;25050;-74
2023/06/23 12:22:37;;;;;;;4.05;3.20;;;;;;;;;;5020690;28;25067;-75
2023/06/23 12:25:04;;;;;;;4.22;2.90;;;;;;;;;;5015082;28;25130;-74
2023/06/23 12:27:30;;;;;;;4.10;2.70;;;;;;;;;;5016846;28;25155;-73
2023/06/23 12:29:56;;;;;;;4.50;2.97;;;;;;;;;;5025896;28;25165;-73
2023/06/23 12:32:29;;;;;;;8.13;3.67;;;;;;;;;;5016207;28;25113;-74
2023/06/23 12:34:55;;;;;;;6.57;3.45;;;;;;;;;;5012933;28;25149;-73
2023/06/23 12:37:21;;;;;;;7.75;4.35;;;;;;;;;;5017987;28;25055;-75
2023/06/23 12:39:51;;;;;;;8.65;3.53;;;;;;;;;;5022877;28;25094;-73
2023/06/23 12:42:17;;;;;;;4.82;3.67;;;;;;;;;;5021093;28;25064;-73
2023/06/23 12:44:43;;;;;;;4.00;3.50;;;;;;;;;;5024633;28;25060;-74
2023/06/23 12:47:10;;;;;;;5.05;3.55;;;;;;;;;;5023002;28;25159;-74
2023/06/23 12:49:37;;;;;;;6.57;3.65;;;;;;;;;;5014313;28;25531;-75
2023/06/23 12:52:04;;;;;;;5.93;4.13;;;;;;;;;;5007357;28;25071;-72
2023/06/23 12:54:30;;;;;;;8.30;6.13;;;;;;;;;;5011060;28;25094;-73
2023/06/23 12:57:03;;;;;;;8.55;6.45;;;;;;;;;;5021068;28;25071;-74
2023/06/23 12:59:29;;;;;;;8.20;5.82;;;;;;;;;;5014197;28;25067;-71
2023/06/23 13:01:55;;;;;;;8.38;5.65;;;;;;;;;;5021504;28;25058;-75
2023/06/23 13:04:22;;;;;;;7.55;6.32;;;;;;;;;;5029918;28;25123;-74
2023/06/23 13:06:49;;;;;;;8.93;6.75;;;;;;;;;;5042569;28;25068;-73
2023/06/23 13:09:15;;;;;;;9.85;6.50;;;;;;;;;;5019175;28;25063;-73
2023/06/23 13:11:41;;;;;;;8.75;5.72;;;;;;;;;;5023180;28;25066;-73
2023/06/23 13:14:07;;;;;;;8.73;6.07;;;;;;;;;;5023178;28;25138;-73
2023/06/23 13:16:33;;;;;;;8.57;5.45;;;;;;;;;;5021979;28;25138;-75
2023/06/23 13:18:59;;;;;;;10.02;5.97;;;;;;;;;;5016250;28;25094;-74
2023/06/23 13:21:25;;;;;;;9.05;6.25;;;;;;;;;;5026498;28;25169;-74
2023/06/23 13:23:51;;;;;;;8.75;6.05;;;;;;;;;;5014595;28;25058;-73
2023/06/23 13:26:17;;;;;;;9.02;6.28;;;;;;;;;;5020196;28;25055;-74
2023/06/23 13:28:43;;;;;;;8.13;6.40;;;;;;;;;;5012473;28;25095;-73
2023/06/23 13:31:09;;;;;;;9.73;4.93;;;;;;;;;;5020701;28;25088;-74
2023/06/23 13:33:35;;;;;;;8.55;5.28;;;;;;;;;;5013043;28;25074;-74
2023/06/23 13:36:01;;;;;;;10.20;5.45;;;;;;;;;;5018815;28;25115;-74
2023/06/23 13:38:27;;;;;;;5.68;3.92;;;;;;;;;;5025255;28;25133;-73
2023/06/23 13:40:53;;;;;;;9.68;4.70;;;;;;;;;;5023693;28;25057;-73
2023/06/23 13:43:19;;;;;;;8.43;4.90;;;;;;;;;;5022042;28;25088;-74
2023/06/23 13:45:45;;;;;;;5.28;3.88;;;;;;;;;;5018778;28;25157;-73
2023/06/23 13:48:11;;;;;;;5.97;4.45;;;;;;;;;;5024722;28;25078;-73
2023/06/23 13:50:37;;;;;;;6.38;4.50;;;;;;;;;;5034466;28;25064;-73
2023/06/23 13:53:03;;;;;;;6.20;4.63;;;;;;;;;;5034252;28;25081;-72
2023/06/23 13:55:29;;;;;;;6.57;4.68;;;;;;;;;;5032636;28;25078;-74
2023/06/23 13:57:55;;;;;;;5.97;4.20;;;;;;;;;;5031910;28;25060;-75
2023/06/23 14:00:21;;;;;;;9.15;4.85;;;;;;;;;;5031109;28;25088;-73
2023/06/23 14:02:47;;;;;;;5.00;4.22;;;;;;;;;;5035313;28;25126;-72
2023/06/23 14:05:14;;;;;;;6.93;4.20;;;;;;;;;;5026627;28;25061;-73
2023/06/23 14:07:40;;;;;;;7.53;5.13;;;;;;;;;;5017105;28;25068;-74
2023/06/23 14:10:07;;;;;;;5.35;4.07;;;;;;;;;;5019436;28;25147;-73
2023/06/23 14:12:33;;;;;;;6.18;3.83;;;;;;;;;;5043647;28;25099;-73
2023/06/23 14:14:59;;;;;;;4.57;3.35;;;;;;;;;;5050363;28;25140;-73
2023/06/23 14:17:26;;;;;;;4.38;3.33;;;;;;;;;;5041940;28;25122;-73
2023/06/23 14:19:52;;;;;;;5.97;3.67;;;;;;;;;;5036126;28;25163;-71
2023/06/23 14:22:18;;;;;;;7.30;3.15;;;;;;;;;;5035470;28;25149;-72
2023/06/23 14:24:44;;;;;;;4.97;3.97;;;;;;;;;;5032658;28;25088;-73
2023/06/23 14:27:10;;;;;;;5.28;3.05;;;;;;;;;;5034956;28;25124;-73
2023/06/23 14:29:36;;;;;;;5.10;2.75;;;;;;;;;;5037453;28;25057;-74
2023/06/23 14:32:02;;;;;;;3.30;2.95;;;;;;;;;;5030146;28;25060;-73